createdAt,value
2018-09-04T00:00:24.339Z,5.87
2018-09-04T00:02:57.668Z,5.60
2018-09-04T00:05:30.994Z,5.70
2018-09-04T00:08:04.379Z,5.35
2018-09-04T00:10:37.806Z,5.47
2018-09-04T00:13:11.345Z,5.78
2018-09-04T00:15:44.668Z,5.22
2018-09-04T00:18:18.025Z,6.05
2018-09-04T00:20:51.359Z,5.65
2018-09-04T00:23:24.666Z,5.40
2018-09-04T00:25:57.972Z,5.97
2018-09-04T00:28:31.309Z,5.65
2018-09-04T00:31:04.783Z,5.03
2018-09-04T00:33:38.086Z,5.40
2018-09-04T00:36:11.450Z,4.92
2018-09-04T00:38:44.765Z,5.08
2018-09-04T00:41:18.133Z,5.15
2018-09-04T00:43:51.560Z,5.97
2018-09-04T00:46:24.945Z,5.50
2018-09-04T00:48:58.246Z,5.47
2018-09-04T00:51:38.516Z,5.45
2018-09-04T00:54:11.828Z,5.60
2018-09-04T00:56:45.162Z,5.15
2018-09-04T00:59:18.477Z,5.50
2018-09-04T01:01:51.784Z,5.05
2018-09-04T01:04:25.097Z,4.72
2018-09-04T01:06:58.472Z,5.10
2018-09-04T01:09:31.901Z,5.40
2018-09-04T01:12:05.246Z,5.33
2018-09-04T01:14:38.536Z,4.65
2018-09-04T01:17:11.864Z,4.90
2018-09-04T01:19:45.200Z,5.53
2018-09-04T01:22:18.556Z,5.25
2018-09-04T01:24:51.905Z,5.37
2018-09-04T01:27:25.225Z,5.55
2018-09-04T01:29:58.526Z,5.60
2018-09-04T01:32:31.962Z,4.80
2018-09-04T01:35:05.268Z,5.05
2018-09-04T01:37:38.589Z,5.78
2018-09-04T01:40:11.896Z,5.10
2018-09-04T01:42:45.208Z,5.47
2018-09-04T01:45:18.517Z,5.53
2018-09-04T01:47:51.850Z,5.72
2018-09-04T01:50:25.145Z,5.30
2018-09-04T01:52:58.465Z,5.80
2018-09-04T01:55:31.766Z,5.35
2018-09-04T01:58:05.233Z,5.75
2018-09-04T02:00:38.520Z,5.55
2018-09-04T02:03:12.484Z,5.45
2018-09-04T02:05:45.790Z,6.42
2018-09-04T02:08:19.155Z,5.47
2018-09-04T02:10:52.497Z,6.35
2018-09-04T02:13:25.849Z,5.70
2018-09-04T02:15:59.187Z,5.60
2018-09-04T02:18:32.545Z,6.45
2018-09-04T02:21:05.901Z,6.33
2018-09-04T02:23:39.218Z,6.37
2018-09-04T02:26:13.085Z,6.25
2018-09-04T02:28:46.396Z,6.42
2018-09-04T02:31:19.725Z,6.53
2018-09-04T02:33:53.213Z,5.53
2018-09-04T02:36:26.639Z,6.75
2018-09-04T02:38:59.973Z,6.75
2018-09-04T02:41:33.275Z,6.87
2018-09-04T02:44:07.114Z,8.33
2018-09-04T02:46:40.420Z,7.53
2018-09-04T02:49:13.762Z,7.47
2018-09-04T02:51:47.141Z,8.15
2018-09-04T02:54:20.557Z,7.22
2018-09-04T02:56:53.865Z,8.25
2018-09-04T02:59:27.194Z,6.70
2018-09-04T03:02:00.600Z,7.58
2018-09-04T03:04:33.930Z,8.35
2018-09-04T03:07:07.273Z,7.72
2018-09-04T03:09:40.616Z,9.43
2018-09-04T03:12:13.938Z,9.30
2018-09-04T03:14:47.257Z,9.70
2018-09-04T03:17:20.850Z,10.20
2018-09-04T03:19:54.217Z,11.20
2018-09-04T03:22:27.603Z,11.50
2018-09-04T03:25:00.928Z,10.72
2018-09-04T03:27:34.357Z,10.38
2018-09-04T03:30:07.690Z,11.30
2018-09-04T03:32:41.029Z,11.57
2018-09-04T03:35:14.372Z,12.98
2018-09-04T03:37:47.706Z,15.30
2018-09-04T03:40:21.066Z,13.72
2018-09-04T03:42:54.420Z,14.70
2018-09-04T03:45:27.789Z,17.42
2018-09-04T03:48:01.149Z,13.90
2018-09-04T03:50:34.493Z,13.70
2018-09-04T03:53:07.830Z,16.48
2018-09-04T03:55:41.149Z,16.50
2018-09-04T03:58:14.489Z,16.23
2018-09-04T04:00:48.565Z,15.40
2018-09-04T04:03:22.595Z,16.17
2018-09-04T04:05:55.925Z,19.73
2018-09-04T04:08:29.266Z,16.25
2018-09-04T04:11:02.663Z,17.77
2018-09-04T04:13:35.997Z,15.85
2018-09-04T04:16:09.334Z,19.00
2018-09-04T04:18:42.662Z,17.65
2018-09-04T04:21:15.994Z,18.35
2018-09-04T04:23:49.345Z,17.07
2018-09-04T04:26:22.651Z,17.00
2018-09-04T04:28:56.017Z,21.93
2018-09-04T04:31:29.314Z,18.67
2018-09-04T04:34:02.699Z,20.40
2018-09-04T04:36:36.018Z,19.85
2018-09-04T04:39:09.910Z,17.90
2018-09-04T04:41:43.206Z,19.50
2018-09-04T04:44:17.203Z,17.80
2018-09-04T04:46:50.516Z,19.45
2018-09-04T04:49:23.845Z,19.65
2018-09-04T04:51:57.161Z,20.37
2018-09-04T04:54:30.497Z,24.92
2018-09-04T04:57:03.880Z,20.37
2018-09-04T04:59:37.217Z,20.62
2018-09-04T05:02:10.652Z,20.37
2018-09-04T05:04:43.990Z,21.02
2018-09-04T05:07:17.342Z,26.12
2018-09-04T05:09:50.741Z,21.65
2018-09-04T05:12:24.221Z,21.35
2018-09-04T05:14:57.545Z,19.60
2018-09-04T05:17:30.884Z,22.02
2018-09-04T05:20:04.384Z,21.65
2018-09-04T05:22:37.704Z,23.95
2018-09-04T05:25:11.038Z,20.95
2018-09-04T05:27:44.358Z,24.45
2018-09-04T05:30:17.689Z,19.55
2018-09-04T05:33:29.461Z,22.67
2018-09-04T05:36:02.825Z,24.37
2018-09-04T05:38:36.389Z,20.75
2018-09-04T05:41:10.171Z,22.02
2018-09-04T05:43:48.427Z,21.93
2018-09-04T05:46:28.002Z,22.22
2018-09-04T05:49:01.670Z,21.50
2018-09-04T05:51:35.001Z,25.97
2018-09-04T05:54:08.366Z,20.60
2018-09-04T05:56:41.804Z,24.07
2018-09-04T05:59:15.125Z,23.62
2018-09-04T06:01:48.454Z,24.23
2018-09-04T06:04:21.804Z,25.92
2018-09-04T06:06:55.145Z,26.60
2018-09-04T06:09:28.485Z,22.60
2018-09-04T06:12:01.808Z,21.77
2018-09-04T06:14:35.243Z,25.72
2018-09-04T06:17:08.597Z,24.60
2018-09-04T06:19:41.930Z,21.95
2018-09-04T06:22:15.274Z,22.10
2018-09-04T06:24:48.600Z,21.15
2018-09-04T06:27:21.945Z,22.90
2018-09-04T06:29:55.277Z,25.35
2018-09-04T06:32:29.852Z,26.05
2018-09-04T06:35:03.184Z,23.80
2018-09-04T06:37:36.512Z,23.42
2018-09-04T06:40:09.842Z,26.42
2018-09-04T06:42:43.163Z,24.82
2018-09-04T06:45:16.465Z,25.48
2018-09-04T06:47:49.821Z,24.27
2018-09-04T06:50:23.177Z,23.30
2018-09-04T06:52:56.509Z,24.37
2018-09-04T06:55:29.825Z,22.32
2018-09-04T06:58:03.668Z,23.12
2018-09-04T07:00:37.073Z,22.45
2018-09-04T07:03:10.822Z,22.22
2018-09-04T07:05:45.281Z,22.15
2018-09-04T07:08:18.705Z,21.40
2018-09-04T07:10:52.024Z,22.25
2018-09-04T07:13:25.899Z,23.02
2018-09-04T07:15:59.290Z,21.87
2018-09-04T07:18:32.634Z,24.00
2018-09-04T07:21:05.970Z,21.95
2018-09-04T07:23:39.294Z,22.85
2018-09-04T07:26:12.877Z,21.35
2018-09-04T07:28:46.203Z,20.00
2018-09-04T07:31:19.698Z,20.23
2018-09-04T07:33:53.041Z,23.55
2018-09-04T07:36:26.429Z,20.43
2018-09-04T07:39:00.101Z,19.75
2018-09-04T07:41:33.555Z,22.93
2018-09-04T07:44:07.031Z,20.62
2018-09-04T07:46:40.395Z,21.40
2018-09-04T07:49:13.747Z,20.08
2018-09-04T07:51:47.085Z,19.85
2018-09-04T07:54:21.204Z,19.65
2018-09-04T07:56:54.581Z,19.42
2018-09-04T07:59:28.149Z,20.82
2018-09-04T08:02:01.529Z,20.27
2018-09-04T08:04:34.885Z,20.17
2018-09-04T08:07:08.247Z,20.90
2018-09-04T08:09:41.608Z,22.13
2018-09-04T08:12:14.962Z,18.87
2018-09-04T08:14:48.359Z,20.45
2018-09-04T08:17:21.686Z,20.97
2018-09-04T08:19:55.011Z,22.85
2018-09-04T08:22:28.376Z,20.12
2018-09-04T08:25:02.821Z,19.60
2018-09-04T08:27:36.164Z,19.85
2018-09-04T08:30:09.572Z,20.68
2018-09-04T08:32:42.926Z,22.62
2018-09-04T08:35:16.283Z,20.95
2018-09-04T08:37:52.432Z,19.15
2018-09-04T08:40:25.805Z,19.48
2018-09-04T08:42:59.209Z,17.80
2018-09-04T08:45:33.005Z,19.90
2018-09-04T08:48:11.737Z,18.75
2018-09-04T08:50:45.202Z,19.30
2018-09-04T08:53:18.683Z,19.42
2018-09-04T08:55:52.018Z,20.80
2018-09-04T08:58:25.416Z,21.82
2018-09-04T09:00:59.157Z,17.65
2018-09-04T09:03:32.866Z,17.70
2018-09-04T09:06:06.286Z,19.77
2018-09-04T09:08:39.712Z,19.55
2018-09-04T09:11:13.167Z,17.42
2018-09-04T09:13:46.630Z,18.05
2018-09-04T09:16:20.033Z,18.20
2018-09-04T09:18:53.365Z,17.52
2018-09-04T09:21:26.669Z,17.85
2018-09-04T09:24:00.063Z,17.70
2018-09-04T09:26:33.493Z,18.52
2018-09-04T09:29:06.841Z,18.17
2018-09-04T09:31:40.245Z,20.08
2018-09-04T09:34:13.648Z,18.57
2018-09-04T09:36:47.115Z,17.73
2018-09-04T09:39:20.425Z,18.50
2018-09-04T09:41:53.762Z,17.35
2018-09-04T09:44:27.455Z,17.85
2018-09-04T09:47:02.473Z,17.40
2018-09-04T09:49:35.858Z,16.67
2018-09-04T09:52:09.459Z,17.87
2018-09-04T09:54:43.044Z,16.65
2018-09-04T09:57:16.551Z,15.45
2018-09-04T09:59:50.197Z,17.98
2018-09-04T10:02:27.760Z,16.67
2018-09-04T10:05:01.143Z,16.55
2018-09-04T10:07:34.510Z,18.32
2018-09-04T10:10:07.875Z,16.35
2018-09-04T10:12:41.313Z,19.45
2018-09-04T10:15:14.638Z,17.75
2018-09-04T10:17:47.964Z,17.17
2018-09-04T10:20:21.925Z,17.45
2018-09-04T10:22:55.549Z,16.35
2018-09-04T10:25:29.041Z,17.73
2018-09-04T10:28:02.894Z,15.83
2018-09-04T10:30:36.225Z,14.50
2018-09-04T10:33:09.606Z,14.03
2018-09-04T10:35:43.237Z,13.68
2018-09-04T10:38:16.578Z,12.23
2018-09-04T10:40:50.119Z,13.65
2018-09-04T10:43:27.173Z,13.85
2018-09-04T10:46:00.762Z,14.00
2018-09-04T10:48:34.154Z,14.23
2018-09-04T10:51:07.499Z,12.68
2018-09-04T10:53:41.121Z,12.37
2018-09-04T10:56:14.544Z,11.90
2018-09-04T10:58:47.950Z,10.95
2018-09-04T11:01:21.342Z,11.43
2018-09-04T11:03:54.657Z,12.23
2018-09-04T11:06:28.234Z,11.00
2018-09-04T11:09:01.590Z,12.15
2018-09-04T11:11:34.951Z,11.55
2018-09-04T11:14:08.529Z,11.25
2018-09-04T11:16:42.285Z,11.28
2018-09-04T11:19:15.576Z,12.35
2018-09-04T11:21:49.357Z,11.25
2018-09-04T11:24:22.785Z,9.83
2018-09-04T11:26:56.302Z,10.15
2018-09-04T11:29:29.660Z,10.95
2018-09-04T11:32:03.786Z,9.50
2018-09-04T11:34:44.031Z,9.78
2018-09-04T11:37:17.413Z,10.40
2018-09-04T11:39:50.825Z,10.85
2018-09-04T11:42:24.154Z,11.95
2018-09-04T11:44:57.721Z,9.50
2018-09-04T11:47:31.069Z,10.23
2018-09-04T11:50:04.507Z,9.13
2018-09-04T11:52:38.181Z,9.60
2018-09-04T11:55:12.009Z,11.88
2018-09-04T11:57:45.374Z,11.33
2018-09-04T12:00:22.665Z,9.55
2018-09-04T12:02:56.028Z,11.05
2018-09-04T12:05:29.386Z,9.63
2018-09-04T12:08:02.757Z,9.90
2018-09-04T12:10:36.077Z,10.45
2018-09-04T12:13:09.409Z,8.93
2018-09-04T12:15:42.783Z,10.65
2018-09-04T12:18:16.102Z,10.65
2018-09-04T12:20:51.608Z,9.58
2018-09-04T12:23:24.919Z,8.45
2018-09-04T12:25:59.435Z,9.48
2018-09-04T12:28:32.836Z,8.23
2018-09-04T12:31:06.709Z,8.63
2018-09-04T12:33:40.045Z,8.23
2018-09-04T12:36:13.458Z,8.68
2018-09-04T12:38:47.006Z,8.55
2018-09-04T12:41:20.345Z,8.20
2018-09-04T12:43:53.783Z,7.28
2018-09-04T12:46:30.496Z,8.08
2018-09-04T12:49:04.489Z,7.87
2018-09-04T12:51:37.825Z,8.98
2018-09-04T12:54:11.211Z,8.05
2018-09-04T12:56:44.614Z,8.35
2018-09-04T12:59:17.938Z,7.92
2018-09-04T13:01:51.265Z,7.42
2018-09-04T13:04:24.639Z,7.28
2018-09-04T13:06:58.006Z,8.20
2018-09-04T13:09:31.388Z,7.92
2018-09-04T13:12:04.741Z,6.83
2018-09-04T13:14:38.127Z,7.30
2018-09-04T13:17:11.422Z,7.85
2018-09-04T13:19:44.771Z,6.75
2018-09-04T13:22:18.102Z,7.62
2018-09-04T13:24:51.410Z,7.83
2018-09-04T13:27:24.874Z,8.10
2018-09-04T13:29:58.305Z,6.92
2018-09-04T13:32:31.641Z,7.35
2018-09-04T13:35:05.032Z,6.87
2018-09-04T13:37:38.364Z,6.42
2018-09-04T13:40:11.702Z,6.28
2018-09-04T13:42:45.033Z,7.00
2018-09-04T13:45:18.344Z,6.45
2018-09-04T13:47:51.698Z,7.10
2018-09-04T13:50:25.086Z,7.15
2018-09-04T13:52:59.272Z,6.87
2018-09-04T13:55:32.641Z,7.15
2018-09-04T13:58:06.005Z,6.15
2018-09-04T14:00:39.300Z,6.62
2018-09-04T14:03:12.614Z,6.60
2018-09-04T14:05:45.918Z,6.62
2018-09-04T14:08:20.157Z,6.33
2018-09-04T14:10:53.496Z,6.33
2018-09-04T14:13:26.820Z,5.97
2018-09-04T14:16:02.643Z,6.12
2018-09-04T14:18:35.962Z,5.45
2018-09-04T14:21:09.379Z,5.85
2018-09-04T14:23:42.717Z,6.60
2018-09-04T14:26:16.009Z,6.17
2018-09-04T14:29:06.421Z,5.15
2018-09-04T14:31:22.730Z,6.08
2018-09-04T14:33:56.063Z,5.80
2018-09-04T14:36:29.475Z,5.60
2018-09-04T14:39:02.795Z,5.83
2018-09-04T14:41:36.353Z,5.40
2018-09-04T14:44:09.694Z,5.85
2018-09-04T14:46:44.657Z,6.28
2018-09-04T14:49:18.019Z,5.80
2018-09-04T14:51:51.330Z,5.50
2018-09-04T14:54:24.664Z,6.30
2018-09-04T14:56:58.041Z,5.60
2018-09-04T14:59:31.412Z,6.05
2018-09-04T15:02:04.759Z,5.47
2018-09-04T15:04:38.097Z,6.00
2018-09-04T15:07:11.460Z,5.90
2018-09-04T15:09:44.792Z,5.28
2018-09-04T15:12:18.257Z,5.72
2018-09-04T15:14:51.640Z,6.20
2018-09-04T15:17:24.994Z,5.78
2018-09-04T15:19:58.902Z,6.28
2018-09-04T15:22:32.391Z,5.72
2018-09-04T15:25:05.819Z,14.30
2018-09-04T15:27:39.286Z,7.90
2018-09-04T15:30:12.609Z,5.85
2018-09-04T15:32:46.032Z,5.67
2018-09-04T15:35:19.826Z,5.37
2018-09-04T15:37:53.230Z,5.20
2018-09-04T15:40:26.565Z,4.65
2018-09-04T15:42:59.967Z,4.40
2018-09-04T15:45:36.063Z,4.45
2018-09-04T15:48:09.878Z,3.92
2018-09-04T15:50:43.294Z,4.05
2018-09-04T15:53:16.681Z,4.17
2018-09-04T15:55:50.013Z,4.45
2018-09-04T15:58:23.446Z,4.28
2018-09-04T16:00:56.889Z,4.30
2018-09-04T16:03:30.302Z,3.75
2018-09-04T16:06:04.000Z,3.80
2018-09-04T16:08:37.523Z,3.83
2018-09-04T16:11:10.988Z,3.83
2018-09-04T16:13:44.541Z,3.52
2018-09-04T16:16:18.535Z,3.75
2018-09-04T16:18:51.948Z,3.87
2018-09-04T16:21:25.383Z,3.45
2018-09-04T16:23:58.685Z,4.12
2018-09-04T16:26:32.027Z,3.67
2018-09-04T16:29:05.454Z,3.98
2018-09-04T16:31:38.884Z,3.15
2018-09-04T16:34:12.387Z,3.42
2018-09-04T16:36:45.714Z,3.50
2018-09-04T16:39:19.046Z,3.58
2018-09-04T16:41:53.401Z,3.58
2018-09-04T16:44:26.854Z,3.40
2018-09-04T16:47:00.373Z,3.37
2018-09-04T16:49:33.760Z,3.37
2018-09-04T16:52:07.301Z,4.03
2018-09-04T16:54:40.644Z,3.40
2018-09-04T16:57:14.024Z,3.22
2018-09-04T16:59:47.472Z,3.27
2018-09-04T17:02:20.865Z,2.83
2018-09-04T17:04:54.299Z,3.17
2018-09-04T17:07:27.646Z,2.95
2018-09-04T17:10:00.958Z,2.92
2018-09-04T17:12:34.384Z,3.12
2018-09-04T17:15:07.811Z,3.30
2018-09-04T17:17:41.140Z,3.27
2018-09-04T17:20:14.436Z,3.50
2018-09-04T17:22:47.843Z,3.70
2018-09-04T17:25:21.325Z,3.10
2018-09-04T17:27:54.685Z,3.20
2018-09-04T17:30:27.985Z,2.83
2018-09-04T17:33:01.334Z,3.30
2018-09-04T17:35:34.650Z,2.98
2018-09-04T17:38:07.976Z,3.02
2018-09-04T17:40:41.289Z,3.20
2018-09-04T17:43:14.618Z,3.33
2018-09-04T17:45:47.955Z,3.35
2018-09-04T17:48:22.019Z,3.15
2018-09-04T17:50:55.332Z,3.30
2018-09-04T17:53:28.720Z,3.25
2018-09-04T17:56:02.249Z,3.20
2018-09-04T17:58:35.576Z,3.83
2018-09-04T18:01:09.018Z,3.47
2018-09-04T18:03:42.332Z,3.22
2018-09-04T18:06:15.738Z,3.25
2018-09-04T18:08:49.066Z,3.17
2018-09-04T18:11:22.524Z,3.60
2018-09-04T18:14:02.317Z,3.83
2018-09-04T18:16:35.670Z,3.47
2018-09-04T18:19:08.977Z,3.60
2018-09-04T18:21:42.293Z,3.47
2018-09-04T18:24:15.759Z,3.22
2018-09-04T18:26:49.129Z,3.40
2018-09-04T18:29:22.443Z,2.95
2018-09-04T18:31:55.795Z,3.22
2018-09-04T18:34:29.213Z,3.80
2018-09-04T18:37:02.609Z,3.45
2018-09-04T18:39:35.965Z,3.80
2018-09-04T18:42:10.005Z,3.80
2018-09-04T18:44:43.403Z,3.90
2018-09-04T18:47:16.744Z,3.10
2018-09-04T18:49:50.147Z,3.40
2018-09-04T18:52:23.506Z,3.45
2018-09-04T18:54:56.834Z,3.60
2018-09-04T18:57:31.101Z,3.62
2018-09-04T19:00:04.671Z,3.87
2018-09-04T19:02:38.094Z,3.65
2018-09-04T19:05:11.820Z,3.98
2018-09-04T19:07:45.254Z,3.92
2018-09-04T19:10:18.834Z,4.35
2018-09-04T19:12:52.503Z,4.08
2018-09-04T19:15:26.175Z,4.10
2018-09-04T19:17:59.801Z,3.80
2018-09-04T19:20:33.149Z,3.87
2018-09-04T19:23:06.523Z,3.80
2018-09-04T19:25:39.924Z,4.00
2018-09-04T19:28:13.552Z,4.60
2018-09-04T19:30:46.965Z,4.90
2018-09-04T19:33:21.380Z,4.10
2018-09-04T19:35:55.526Z,3.50
2018-09-04T19:38:28.918Z,3.40
2018-09-04T19:41:02.290Z,3.65
2018-09-04T19:43:36.309Z,3.83
2018-09-04T19:46:09.729Z,3.52
2018-09-04T19:48:43.389Z,3.25
2018-09-04T19:51:23.025Z,4.17
2018-09-04T19:53:56.414Z,3.83
2018-09-04T19:56:29.794Z,4.28
2018-09-04T19:59:04.135Z,4.65
2018-09-04T20:01:37.669Z,4.47
2018-09-04T20:04:11.333Z,4.40
2018-09-04T20:06:45.031Z,4.15
2018-09-04T20:09:18.436Z,3.90
2018-09-04T20:11:52.261Z,3.60
2018-09-04T20:14:25.630Z,4.08
2018-09-04T20:16:59.034Z,4.60
2018-09-04T20:19:32.362Z,4.22
2018-09-04T20:22:07.578Z,4.35
2018-09-04T20:24:40.957Z,4.30
2018-09-04T20:27:14.885Z,4.92
2018-09-04T20:29:48.329Z,4.53
2018-09-04T20:32:21.650Z,4.53
2018-09-04T20:34:55.020Z,4.78
2018-09-04T20:37:28.416Z,4.10
2018-09-04T20:40:01.735Z,4.55
2018-09-04T20:42:36.008Z,4.62
2018-09-04T20:45:09.402Z,4.67
2018-09-04T20:47:48.768Z,4.87
2018-09-04T20:50:22.097Z,4.60
2018-09-04T20:52:55.706Z,4.75
2018-09-04T20:55:29.042Z,4.97
2018-09-04T20:58:13.639Z,5.03
2018-09-04T21:00:58.216Z,4.72
2018-09-04T21:03:42.917Z,4.50
2018-09-04T21:06:27.506Z,4.40
2018-09-04T21:09:06.666Z,4.90
2018-09-04T21:11:40.047Z,4.35
2018-09-04T21:14:13.627Z,4.00
2018-09-04T21:16:47.380Z,4.40
2018-09-04T21:19:21.096Z,4.65
2018-09-04T21:21:54.442Z,3.95
2018-09-04T21:24:27.892Z,4.17
2018-09-04T21:27:01.278Z,4.35
2018-09-04T21:29:34.864Z,4.60
2018-09-04T21:32:08.221Z,5.08
2018-09-04T21:34:41.586Z,5.08
2018-09-04T21:37:15.981Z,5.22
2018-09-04T21:39:49.378Z,4.97
2018-09-04T21:42:22.831Z,5.25
2018-09-04T21:44:56.125Z,5.37
2018-09-04T21:47:29.442Z,5.15
2018-09-04T21:50:02.759Z,5.08
2018-09-04T21:52:36.082Z,5.05
2018-09-04T21:55:09.605Z,4.37
2018-09-04T21:57:42.960Z,5.00
2018-09-04T22:00:20.573Z,3.87
2018-09-04T22:02:54.514Z,3.77
2018-09-04T22:05:27.885Z,4.20
2018-09-04T22:08:01.217Z,5.00
2018-09-04T22:10:35.461Z,5.00
2018-09-04T22:13:08.823Z,4.90
2018-09-04T22:15:42.212Z,4.70
2018-09-04T22:18:15.532Z,5.37
2018-09-04T22:20:48.921Z,6.05
2018-09-04T22:23:22.213Z,4.70
2018-09-04T22:25:55.646Z,4.95
2018-09-04T22:28:28.981Z,4.55
2018-09-04T22:31:02.313Z,5.00
2018-09-04T22:33:36.521Z,5.28
2018-09-04T22:36:10.038Z,5.92
2018-09-04T22:38:43.402Z,4.37
2018-09-04T22:41:16.884Z,5.42
2018-09-04T22:43:50.383Z,5.20
2018-09-04T22:46:24.981Z,5.85
2018-09-04T22:48:58.410Z,6.72
2018-09-04T22:51:38.074Z,5.85
2018-09-04T22:54:11.438Z,5.90
2018-09-04T22:56:44.878Z,6.17
2018-09-04T22:59:18.392Z,6.58
2018-09-04T23:01:51.988Z,5.15
2018-09-04T23:04:25.360Z,5.50
2018-09-04T23:06:58.721Z,4.75
2018-09-04T23:09:32.019Z,5.50
2018-09-04T23:12:05.353Z,5.03
2018-09-04T23:14:38.910Z,5.08
2018-09-04T23:17:12.347Z,4.87
2018-09-04T23:19:45.672Z,6.28
2018-09-04T23:22:19.091Z,5.22
2018-09-04T23:24:52.402Z,5.12
2018-09-04T23:27:25.728Z,5.22
2018-09-04T23:29:59.020Z,4.65
2018-09-04T23:32:32.365Z,5.00
2018-09-04T23:35:05.833Z,6.92
2018-09-04T23:38:08.300Z,5.53
2018-09-04T23:40:41.688Z,5.70
2018-09-04T23:43:15.099Z,5.00
2018-09-04T23:45:48.516Z,5.05
2018-09-04T23:48:21.931Z,4.50
2018-09-04T23:50:55.375Z,4.30
2018-09-04T23:53:28.833Z,4.40
2018-09-04T23:56:08.523Z,6.50
2018-09-04T23:58:41.912Z,5.85
